sensor_id;sensor_type;location;lat;lon;timestamp;P1;durP1;ratioP1;P2;durP2;ratioP2
81651;SDS011;71061;55.714;37.794;2023-10-19T00:02:59;4.75;;;2.63;;
81651;SDS011;71061;55.714;37.794;2023-10-19T00:05:28;5.20;;;2.58;;
81651;SDS011;71061;55.714;37.794;2023-10-19T00:07:56;6.05;;;2.15;;
81651;SDS011;71061;55.714;37.794;2023-10-19T00:10:24;8.50;;;2.67;;
81651;SDS011;71061;55.714;37.794;2023-10-19T00:12:54;5.80;;;2.40;;
81651;SDS011;71061;55.714;37.794;2023-10-19T00:15:28;6.07;;;2.63;;
81651;SDS011;71061;55.714;37.794;2023-10-19T00:17:57;7.22;;;2.22;;
81651;SDS011;71061;55.714;37.794;2023-10-19T00:20:25;6.07;;;2.85;;
81651;SDS011;71061;55.714;37.794;2023-10-19T00:23:11;6.65;;;2.42;;
81651;SDS011;71061;55.714;37.794;2023-10-19T00:25:40;7.72;;;2.97;;
81651;SDS011;71061;55.714;37.794;2023-10-19T00:28:07;4.65;;;2.17;;
81651;SDS011;71061;55.714;37.794;2023-10-19T00:30:34;7.30;;;2.65;;
81651;SDS011;71061;55.714;37.794;2023-10-19T00:33:02;6.03;;;2.22;;
81651;SDS011;71061;55.714;37.794;2023-10-19T00:35:30;6.28;;;2.70;;
81651;SDS011;71061;55.714;37.794;2023-10-19T00:38:00;6.03;;;2.33;;
81651;SDS011;71061;55.714;37.794;2023-10-19T00:40:53;6.10;;;2.50;;
81651;SDS011;71061;55.714;37.794;2023-10-19T00:43:27;5.10;;;2.08;;
81651;SDS011;71061;55.714;37.794;2023-10-19T00:45:58;4.47;;;2.20;;
81651;SDS011;71061;55.714;37.794;2023-10-19T00:48:27;6.18;;;2.55;;
81651;SDS011;71061;55.714;37.794;2023-10-19T00:50:53;5.80;;;2.38;;
81651;SDS011;71061;55.714;37.794;2023-10-19T00:53:33;5.28;;;2.45;;
81651;SDS011;71061;55.714;37.794;2023-10-19T00:56:01;8.82;;;3.25;;
81651;SDS011;71061;55.714;37.794;2023-10-19T00:58:30;17.30;;;3.13;;
81651;SDS011;71061;55.714;37.794;2023-10-19T01:00:57;8.48;;;3.22;;
81651;SDS011;71061;55.714;37.794;2023-10-19T01:03:25;6.75;;;3.85;;
81651;SDS011;71061;55.714;37.794;2023-10-19T01:05:57;5.90;;;3.38;;
81651;SDS011;71061;55.714;37.794;2023-10-19T01:08:23;5.47;;;3.10;;
81651;SDS011;71061;55.714;37.794;2023-10-19T01:10:51;6.75;;;2.85;;
81651;SDS011;71061;55.714;37.794;2023-10-19T01:13:18;5.63;;;3.33;;
81651;SDS011;71061;55.714;37.794;2023-10-19T01:15:52;5.13;;;2.67;;
81651;SDS011;71061;55.714;37.794;2023-10-19T01:18:19;6.32;;;2.58;;
81651;SDS011;71061;55.714;37.794;2023-10-19T01:20:45;7.15;;;3.20;;
81651;SDS011;71061;55.714;37.794;2023-10-19T01:23:20;5.07;;;2.30;;
81651;SDS011;71061;55.714;37.794;2023-10-19T01:25:48;5.63;;;3.03;;
81651;SDS011;71061;55.714;37.794;2023-10-19T01:28:35;7.75;;;3.22;;
81651;SDS011;71061;55.714;37.794;2023-10-19T01:31:18;6.07;;;3.13;;
81651;SDS011;71061;55.714;37.794;2023-10-19T01:33:59;5.88;;;3.50;;
81651;SDS011;71061;55.714;37.794;2023-10-19T01:36:29;5.47;;;3.30;;
81651;SDS011;71061;55.714;37.794;2023-10-19T01:39:01;5.90;;;3.17;;
81651;SDS011;71061;55.714;37.794;2023-10-19T01:41:28;7.63;;;3.63;;
81651;SDS011;71061;55.714;37.794;2023-10-19T01:43:58;5.53;;;2.72;;
81651;SDS011;71061;55.714;37.794;2023-10-19T01:46:30;5.85;;;3.58;;
81651;SDS011;71061;55.714;37.794;2023-10-19T01:49:00;5.10;;;3.08;;
81651;SDS011;71061;55.714;37.794;2023-10-19T01:51:28;6.18;;;3.45;;
81651;SDS011;71061;55.714;37.794;2023-10-19T01:53:58;6.70;;;3.80;;
81651;SDS011;71061;55.714;37.794;2023-10-19T01:56:26;6.03;;;2.95;;
81651;SDS011;71061;55.714;37.794;2023-10-19T01:58:52;5.72;;;2.75;;
81651;SDS011;71061;55.714;37.794;2023-10-19T02:01:20;7.07;;;3.33;;
81651;SDS011;71061;55.714;37.794;2023-10-19T02:03:46;6.40;;;3.35;;
81651;SDS011;71061;55.714;37.794;2023-10-19T02:06:13;8.68;;;4.07;;
81651;SDS011;71061;55.714;37.794;2023-10-19T02:08:57;6.43;;;3.20;;
81651;SDS011;71061;55.714;37.794;2023-10-19T02:11:27;8.50;;;3.95;;
81651;SDS011;71061;55.714;37.794;2023-10-19T02:13:55;6.35;;;3.70;;
81651;SDS011;71061;55.714;37.794;2023-10-19T02:16:26;8.48;;;4.30;;
81651;SDS011;71061;55.714;37.794;2023-10-19T02:18:55;6.43;;;3.58;;
81651;SDS011;71061;55.714;37.794;2023-10-19T02:21:41;6.30;;;4.28;;
81651;SDS011;71061;55.714;37.794;2023-10-19T02:24:07;7.60;;;4.50;;
81651;SDS011;71061;55.714;37.794;2023-10-19T02:26:33;8.65;;;4.57;;
81651;SDS011;71061;55.714;37.794;2023-10-19T02:28:59;7.65;;;4.53;;
81651;SDS011;71061;55.714;37.794;2023-10-19T02:31:25;10.20;;;6.28;;
81651;SDS011;71061;55.714;37.794;2023-10-19T02:33:53;9.15;;;5.60;;
81651;SDS011;71061;55.714;37.794;2023-10-19T02:36:27;8.02;;;4.80;;
81651;SDS011;71061;55.714;37.794;2023-10-19T02:38:55;8.38;;;5.38;;
81651;SDS011;71061;55.714;37.794;2023-10-19T02:41:25;8.30;;;4.80;;
81651;SDS011;71061;55.714;37.794;2023-10-19T02:43:54;8.93;;;5.25;;
81651;SDS011;71061;55.714;37.794;2023-10-19T02:46:35;8.98;;;5.18;;
81651;SDS011;71061;55.714;37.794;2023-10-19T02:51:41;8.00;;;4.97;;
81651;SDS011;71061;55.714;37.794;2023-10-19T02:54:10;8.45;;;4.60;;
81651;SDS011;71061;55.714;37.794;2023-10-19T02:56:44;9.35;;;4.32;;
81651;SDS011;71061;55.714;37.794;2023-10-19T02:59:16;9.38;;;5.07;;
81651;SDS011;71061;55.714;37.794;2023-10-19T03:01:48;7.90;;;5.57;;
81651;SDS011;71061;55.714;37.794;2023-10-19T03:04:15;9.82;;;4.50;;
81651;SDS011;71061;55.714;37.794;2023-10-19T03:06:41;9.05;;;4.60;;
81651;SDS011;71061;55.714;37.794;2023-10-19T03:09:07;7.20;;;4.68;;
81651;SDS011;71061;55.714;37.794;2023-10-19T03:11:48;6.13;;;4.53;;
81651;SDS011;71061;55.714;37.794;2023-10-19T03:14:18;7.40;;;4.32;;
81651;SDS011;71061;55.714;37.794;2023-10-19T03:16:45;7.47;;;4.20;;
81651;SDS011;71061;55.714;37.794;2023-10-19T03:19:12;6.97;;;4.15;;
81651;SDS011;71061;55.714;37.794;2023-10-19T03:21:38;8.32;;;4.22;;
81651;SDS011;71061;55.714;37.794;2023-10-19T03:24:15;7.35;;;3.97;;
81651;SDS011;71061;55.714;37.794;2023-10-19T03:27:04;6.30;;;3.70;;
81651;SDS011;71061;55.714;37.794;2023-10-19T03:29:39;8.10;;;4.25;;
81651;SDS011;71061;55.714;37.794;2023-10-19T03:32:06;7.05;;;4.40;;
81651;SDS011;71061;55.714;37.794;2023-10-19T03:34:33;7.18;;;4.68;;
81651;SDS011;71061;55.714;37.794;2023-10-19T03:37:00;6.82;;;3.90;;
81651;SDS011;71061;55.714;37.794;2023-10-19T03:39:38;7.45;;;4.07;;
81651;SDS011;71061;55.714;37.794;2023-10-19T03:42:05;7.00;;;4.45;;
81651;SDS011;71061;55.714;37.794;2023-10-19T03:44:32;8.68;;;4.63;;
81651;SDS011;71061;55.714;37.794;2023-10-19T03:47:24;7.43;;;4.95;;
81651;SDS011;71061;55.714;37.794;2023-10-19T03:49:51;9.05;;;5.40;;
81651;SDS011;71061;55.714;37.794;2023-10-19T03:52:17;7.85;;;5.30;;
81651;SDS011;71061;55.714;37.794;2023-10-19T03:54:54;7.75;;;4.47;;
81651;SDS011;71061;55.714;37.794;2023-10-19T03:57:19;7.57;;;4.65;;
81651;SDS011;71061;55.714;37.794;2023-10-19T03:59:48;7.93;;;4.32;;
81651;SDS011;71061;55.714;37.794;2023-10-19T04:02:15;8.93;;;4.60;;
81651;SDS011;71061;55.714;37.794;2023-10-19T04:04:46;8.05;;;4.97;;
81651;SDS011;71061;55.714;37.794;2023-10-19T04:07:14;7.88;;;4.45;;
81651;SDS011;71061;55.714;37.794;2023-10-19T04:09:55;8.75;;;6.70;;
81651;SDS011;71061;55.714;37.794;2023-10-19T04:12:25;8.57;;;6.13;;
81651;SDS011;71061;55.714;37.794;2023-10-19T04:14:54;8.43;;;4.65;;
81651;SDS011;71061;55.714;37.794;2023-10-19T04:17:21;8.73;;;6.40;;
81651;SDS011;71061;55.714;37.794;2023-10-19T04:19:49;8.35;;;5.40;;
81651;SDS011;71061;55.714;37.794;2023-10-19T04:22:17;9.63;;;6.00;;
81651;SDS011;71061;55.714;37.794;2023-10-19T04:24:51;8.52;;;4.97;;
81651;SDS011;71061;55.714;37.794;2023-10-19T04:27:17;8.77;;;5.97;;
81651;SDS011;71061;55.714;37.794;2023-10-19T04:29:47;8.50;;;4.75;;
81651;SDS011;71061;55.714;37.794;2023-10-19T04:32:15;12.13;;;6.47;;
81651;SDS011;71061;55.714;37.794;2023-10-19T04:34:48;10.23;;;6.63;;
81651;SDS011;71061;55.714;37.794;2023-10-19T04:37:14;10.00;;;7.15;;
81651;SDS011;71061;55.714;37.794;2023-10-19T04:39:45;9.60;;;6.47;;
81651;SDS011;71061;55.714;37.794;2023-10-19T04:42:11;8.27;;;5.50;;
81651;SDS011;71061;55.714;37.794;2023-10-19T04:44:37;11.55;;;6.40;;
81651;SDS011;71061;55.714;37.794;2023-10-19T04:47:03;8.15;;;6.03;;
81651;SDS011;71061;55.714;37.794;2023-10-19T04:49:29;9.55;;;6.20;;
81651;SDS011;71061;55.714;37.794;2023-10-19T04:51:54;9.20;;;5.60;;
81651;SDS011;71061;55.714;37.794;2023-10-19T04:54:20;8.40;;;5.70;;
81651;SDS011;71061;55.714;37.794;2023-10-19T04:56:46;10.55;;;6.95;;
81651;SDS011;71061;55.714;37.794;2023-10-19T04:59:12;10.02;;;6.55;;
81651;SDS011;71061;55.714;37.794;2023-10-19T05:01:37;8.23;;;5.25;;
81651;SDS011;71061;55.714;37.794;2023-10-19T05:04:05;10.32;;;6.10;;
81651;SDS011;71061;55.714;37.794;2023-10-19T05:06:31;9.35;;;6.45;;
81651;SDS011;71061;55.714;37.794;2023-10-19T05:08:57;8.88;;;4.75;;
81651;SDS011;71061;55.714;37.794;2023-10-19T05:11:22;10.30;;;5.82;;
81651;SDS011;71061;55.714;37.794;2023-10-19T05:13:48;18.85;;;10.60;;
81651;SDS011;71061;55.714;37.794;2023-10-19T05:16:14;11.70;;;6.85;;
81651;SDS011;71061;55.714;37.794;2023-10-19T05:18:40;11.18;;;6.32;;
81651;SDS011;71061;55.714;37.794;2023-10-19T05:21:06;10.10;;;6.28;;
81651;SDS011;71061;55.714;37.794;2023-10-19T05:23:32;8.20;;;4.40;;
81651;SDS011;71061;55.714;37.794;2023-10-19T05:26:02;9.18;;;4.32;;
81651;SDS011;71061;55.714;37.794;2023-10-19T05:28:28;6.72;;;3.88;;
81651;SDS011;71061;55.714;37.794;2023-10-19T05:30:54;7.25;;;4.57;;
81651;SDS011;71061;55.714;37.794;2023-10-19T05:33:20;11.05;;;7.45;;
81651;SDS011;71061;55.714;37.794;2023-10-19T05:35:47;6.60;;;4.18;;
81651;SDS011;71061;55.714;37.794;2023-10-19T05:38:13;7.20;;;4.60;;
81651;SDS011;71061;55.714;37.794;2023-10-19T05:40:38;11.77;;;5.35;;
81651;SDS011;71061;55.714;37.794;2023-10-19T05:43:08;6.57;;;4.45;;
81651;SDS011;71061;55.714;37.794;2023-10-19T05:45:34;7.28;;;4.38;;
81651;SDS011;71061;55.714;37.794;2023-10-19T05:48:01;13.23;;;7.72;;
81651;SDS011;71061;55.714;37.794;2023-10-19T05:50:29;7.75;;;5.07;;
81651;SDS011;71061;55.714;37.794;2023-10-19T05:52:55;8.07;;;5.10;;
81651;SDS011;71061;55.714;37.794;2023-10-19T05:55:20;7.70;;;4.55;;
81651;SDS011;71061;55.714;37.794;2023-10-19T05:57:47;10.27;;;6.15;;
81651;SDS011;71061;55.714;37.794;2023-10-19T06:00:14;7.25;;;4.60;;
81651;SDS011;71061;55.714;37.794;2023-10-19T06:05:17;10.20;;;5.38;;
81651;SDS011;71061;55.714;37.794;2023-10-19T06:07:44;10.10;;;4.90;;
81651;SDS011;71061;55.714;37.794;2023-10-19T06:10:11;7.47;;;4.72;;
81651;SDS011;71061;55.714;37.794;2023-10-19T06:12:41;9.00;;;5.90;;
81651;SDS011;71061;55.714;37.794;2023-10-19T06:15:09;11.52;;;5.63;;
81651;SDS011;71061;55.714;37.794;2023-10-19T06:17:36;10.30;;;5.43;;
81651;SDS011;71061;55.714;37.794;2023-10-19T06:20:04;8.70;;;5.65;;
81651;SDS011;71061;55.714;37.794;2023-10-19T06:22:33;9.35;;;5.13;;
81651;SDS011;71061;55.714;37.794;2023-10-19T06:25:00;10.27;;;5.60;;
81651;SDS011;71061;55.714;37.794;2023-10-19T06:27:29;11.50;;;5.57;;
81651;SDS011;71061;55.714;37.794;2023-10-19T06:29:56;11.70;;;7.38;;
81651;SDS011;71061;55.714;37.794;2023-10-19T06:32:22;9.90;;;5.40;;
81651;SDS011;71061;55.714;37.794;2023-10-19T06:34:48;10.57;;;5.97;;
81651;SDS011;71061;55.714;37.794;2023-10-19T06:37:14;10.15;;;5.90;;
81651;SDS011;71061;55.714;37.794;2023-10-19T06:39:40;8.48;;;5.50;;
81651;SDS011;71061;55.714;37.794;2023-10-19T06:42:07;6.95;;;4.40;;
81651;SDS011;71061;55.714;37.794;2023-10-19T06:44:40;9.70;;;5.40;;
81651;SDS011;71061;55.714;37.794;2023-10-19T06:47:08;10.13;;;4.88;;
81651;SDS011;71061;55.714;37.794;2023-10-19T06:49:33;8.63;;;5.43;;
81651;SDS011;71061;55.714;37.794;2023-10-19T06:51:59;11.05;;;6.32;;
81651;SDS011;71061;55.714;37.794;2023-10-19T06:54:25;10.60;;;5.82;;
81651;SDS011;71061;55.714;37.794;2023-10-19T06:56:53;9.32;;;5.50;;
81651;SDS011;71061;55.714;37.794;2023-10-19T06:59:19;10.48;;;5.38;;
81651;SDS011;71061;55.714;37.794;2023-10-19T07:01:44;10.18;;;5.80;;
81651;SDS011;71061;55.714;37.794;2023-10-19T07:04:12;9.63;;;5.93;;
81651;SDS011;71061;55.714;37.794;2023-10-19T07:06:38;9.98;;;6.05;;
81651;SDS011;71061;55.714;37.794;2023-10-19T07:09:04;9.55;;;5.72;;
81651;SDS011;71061;55.714;37.794;2023-10-19T07:11:31;11.95;;;5.18;;
81651;SDS011;71061;55.714;37.794;2023-10-19T07:13:59;9.55;;;5.85;;
81651;SDS011;71061;55.714;37.794;2023-10-19T07:16:25;8.88;;;5.63;;
81651;SDS011;71061;55.714;37.794;2023-10-19T07:18:51;11.02;;;5.63;;
81651;SDS011;71061;55.714;37.794;2023-10-19T07:21:18;11.02;;;6.38;;
81651;SDS011;71061;55.714;37.794;2023-10-19T07:23:44;11.82;;;7.38;;
81651;SDS011;71061;55.714;37.794;2023-10-19T07:26:11;12.25;;;6.85;;
81651;SDS011;71061;55.714;37.794;2023-10-19T07:28:39;11.75;;;6.93;;
81651;SDS011;71061;55.714;37.794;2023-10-19T07:31:05;11.75;;;6.90;;
81651;SDS011;71061;55.714;37.794;2023-10-19T07:33:37;13.23;;;5.47;;
81651;SDS011;71061;55.714;37.794;2023-10-19T07:36:12;11.00;;;6.10;;
81651;SDS011;71061;55.714;37.794;2023-10-19T07:38:40;10.40;;;5.82;;
81651;SDS011;71061;55.714;37.794;2023-10-19T07:41:08;11.68;;;6.70;;
81651;SDS011;71061;55.714;37.794;2023-10-19T07:43:35;10.85;;;6.57;;
81651;SDS011;71061;55.714;37.794;2023-10-19T07:46:01;12.32;;;7.20;;
81651;SDS011;71061;55.714;37.794;2023-10-19T07:48:27;11.38;;;5.18;;
81651;SDS011;71061;55.714;37.794;2023-10-19T07:50:54;11.88;;;5.32;;
81651;SDS011;71061;55.714;37.794;2023-10-19T07:53:20;11.50;;;5.03;;
81651;SDS011;71061;55.714;37.794;2023-10-19T07:55:47;8.13;;;5.03;;
81651;SDS011;71061;55.714;37.794;2023-10-19T07:58:12;6.63;;;3.67;;
81651;SDS011;71061;55.714;37.794;2023-10-19T08:00:38;7.22;;;4.25;;
81651;SDS011;71061;55.714;37.794;2023-10-19T08:03:04;10.80;;;4.38;;
81651;SDS011;71061;55.714;37.794;2023-10-19T08:05:31;11.30;;;5.40;;
81651;SDS011;71061;55.714;37.794;2023-10-19T08:07:57;12.43;;;7.38;;
81651;SDS011;71061;55.714;37.794;2023-10-19T08:10:24;8.77;;;5.45;;
81651;SDS011;71061;55.714;37.794;2023-10-19T08:12:52;9.30;;;4.20;;
81651;SDS011;71061;55.714;37.794;2023-10-19T08:15:18;8.20;;;4.20;;
81651;SDS011;71061;55.714;37.794;2023-10-19T08:17:47;9.70;;;4.50;;
81651;SDS011;71061;55.714;37.794;2023-10-19T08:22:42;7.25;;;4.40;;
81651;SDS011;71061;55.714;37.794;2023-10-19T08:25:09;8.43;;;3.72;;
81651;SDS011;71061;55.714;37.794;2023-10-19T08:27:40;8.63;;;4.50;;
81651;SDS011;71061;55.714;37.794;2023-10-19T08:30:11;7.78;;;3.85;;
81651;SDS011;71061;55.714;37.794;2023-10-19T08:32:39;7.80;;;4.53;;
81651;SDS011;71061;55.714;37.794;2023-10-19T08:35:07;7.95;;;4.18;;
81651;SDS011;71061;55.714;37.794;2023-10-19T08:37:37;7.13;;;3.75;;
81651;SDS011;71061;55.714;37.794;2023-10-19T08:40:06;6.18;;;3.78;;
81651;SDS011;71061;55.714;37.794;2023-10-19T08:42:32;8.52;;;3.83;;
81651;SDS011;71061;55.714;37.794;2023-10-19T08:45:00;6.95;;;3.67;;
81651;SDS011;71061;55.714;37.794;2023-10-19T08:47:26;8.13;;;3.92;;
81651;SDS011;71061;55.714;37.794;2023-10-19T08:49:53;7.00;;;4.05;;
81651;SDS011;71061;55.714;37.794;2023-10-19T08:52:20;8.63;;;4.10;;
81651;SDS011;71061;55.714;37.794;2023-10-19T08:54:48;9.35;;;3.95;;
81651;SDS011;71061;55.714;37.794;2023-10-19T08:57:13;7.32;;;4.03;;
81651;SDS011;71061;55.714;37.794;2023-10-19T08:59:39;8.45;;;4.07;;
81651;SDS011;71061;55.714;37.794;2023-10-19T09:02:05;9.65;;;4.80;;
81651;SDS011;71061;55.714;37.794;2023-10-19T09:04:32;8.00;;;4.38;;
81651;SDS011;71061;55.714;37.794;2023-10-19T09:07:05;9.40;;;5.38;;
81651;SDS011;71061;55.714;37.794;2023-10-19T09:09:35;10.57;;;4.32;;
81651;SDS011;71061;55.714;37.794;2023-10-19T09:12:06;6.13;;;3.33;;
81651;SDS011;71061;55.714;37.794;2023-10-19T09:14:33;6.03;;;2.42;;
81651;SDS011;71061;55.714;37.794;2023-10-19T09:17:01;4.60;;;2.20;;
81651;SDS011;71061;55.714;37.794;2023-10-19T09:22:13;6.10;;;3.20;;
81651;SDS011;71061;55.714;37.794;2023-10-19T09:24:54;5.28;;;2.92;;
81651;SDS011;71061;55.714;37.794;2023-10-19T09:27:21;5.50;;;2.83;;
81651;SDS011;71061;55.714;37.794;2023-10-19T09:29:47;10.02;;;6.32;;
81651;SDS011;71061;55.714;37.794;2023-10-19T09:32:14;10.40;;;5.07;;
81651;SDS011;71061;55.714;37.794;2023-10-19T09:34:40;8.43;;;4.78;;
81651;SDS011;71061;55.714;37.794;2023-10-19T09:37:09;7.03;;;4.50;;
81651;SDS011;71061;55.714;37.794;2023-10-19T09:39:35;8.40;;;4.90;;
81651;SDS011;71061;55.714;37.794;2023-10-19T09:42:09;7.95;;;3.90;;
81651;SDS011;71061;55.714;37.794;2023-10-19T09:44:45;7.65;;;3.40;;
81651;SDS011;71061;55.714;37.794;2023-10-19T09:47:15;11.23;;;6.05;;
81651;SDS011;71061;55.714;37.794;2023-10-19T09:49:49;7.93;;;4.05;;
81651;SDS011;71061;55.714;37.794;2023-10-19T09:52:15;6.45;;;3.40;;
81651;SDS011;71061;55.714;37.794;2023-10-19T09:57:21;6.28;;;3.78;;
81651;SDS011;71061;55.714;37.794;2023-10-19T09:59:54;5.70;;;3.35;;
81651;SDS011;71061;55.714;37.794;2023-10-19T10:02:23;5.30;;;3.22;;
81651;SDS011;71061;55.714;37.794;2023-10-19T10:04:49;8.23;;;4.10;;
81651;SDS011;71061;55.714;37.794;2023-10-19T10:07:15;8.77;;;4.50;;
81651;SDS011;71061;55.714;37.794;2023-10-19T10:09:42;7.45;;;4.57;;
81651;SDS011;71061;55.714;37.794;2023-10-19T10:14:57;8.02;;;3.35;;
81651;SDS011;71061;55.714;37.794;2023-10-19T10:17:33;6.60;;;2.85;;
81651;SDS011;71061;55.714;37.794;2023-10-19T10:25:50;6.10;;;2.65;;
81651;SDS011;71061;55.714;37.794;2023-10-19T10:28:19;4.93;;;2.42;;
81651;SDS011;71061;55.714;37.794;2023-10-19T10:33:43;5.25;;;1.90;;
81651;SDS011;71061;55.714;37.794;2023-10-19T10:36:11;4.80;;;2.00;;
81651;SDS011;71061;55.714;37.794;2023-10-19T10:38:38;5.60;;;1.92;;
81651;SDS011;71061;55.714;37.794;2023-10-19T10:41:05;4.00;;;1.60;;
81651;SDS011;71061;55.714;37.794;2023-10-19T10:43:47;4.20;;;1.58;;
81651;SDS011;71061;55.714;37.794;2023-10-19T10:46:14;6.45;;;2.95;;
81651;SDS011;71061;55.714;37.794;2023-10-19T10:48:41;6.65;;;2.47;;
81651;SDS011;71061;55.714;37.794;2023-10-19T10:51:15;6.05;;;2.15;;
81651;SDS011;71061;55.714;37.794;2023-10-19T10:53:41;5.65;;;2.47;;
81651;SDS011;71061;55.714;37.794;2023-10-19T10:56:07;5.53;;;2.75;;
81651;SDS011;71061;55.714;37.794;2023-10-19T10:58:32;6.57;;;2.55;;
81651;SDS011;71061;55.714;37.794;2023-10-19T11:00:58;10.05;;;4.20;;
81651;SDS011;71061;55.714;37.794;2023-10-19T11:03:24;9.65;;;4.30;;
81651;SDS011;71061;55.714;37.794;2023-10-19T11:05:55;8.30;;;4.65;;
81651;SDS011;71061;55.714;37.794;2023-10-19T11:08:28;12.85;;;6.53;;
81651;SDS011;71061;55.714;37.794;2023-10-19T11:10:54;10.05;;;4.38;;
81651;SDS011;71061;55.714;37.794;2023-10-19T11:13:23;8.98;;;4.30;;
81651;SDS011;71061;55.714;37.794;2023-10-19T11:15:52;10.02;;;4.38;;
81651;SDS011;71061;55.714;37.794;2023-10-19T11:21:07;7.93;;;3.65;;
81651;SDS011;71061;55.714;37.794;2023-10-19T11:26:15;8.98;;;4.00;;
81651;SDS011;71061;55.714;37.794;2023-10-19T11:28:41;6.95;;;3.85;;
81651;SDS011;71061;55.714;37.794;2023-10-19T11:31:15;9.13;;;3.65;;
81651;SDS011;71061;55.714;37.794;2023-10-19T11:33:53;7.78;;;2.97;;
81651;SDS011;71061;55.714;37.794;2023-10-19T11:36:21;6.03;;;3.28;;
81651;SDS011;71061;55.714;37.794;2023-10-19T11:38:49;6.88;;;3.25;;
81651;SDS011;71061;55.714;37.794;2023-10-19T11:41:16;6.03;;;3.03;;
81651;SDS011;71061;55.714;37.794;2023-10-19T11:43:43;6.30;;;2.65;;
81651;SDS011;71061;55.714;37.794;2023-10-19T11:46:10;6.88;;;2.85;;
81651;SDS011;71061;55.714;37.794;2023-10-19T11:48:37;7.68;;;2.50;;
81651;SDS011;71061;55.714;37.794;2023-10-19T11:51:05;5.35;;;2.65;;
81651;SDS011;71061;55.714;37.794;2023-10-19T11:53:33;6.53;;;3.08;;
81651;SDS011;71061;55.714;37.794;2023-10-19T11:56:02;6.57;;;3.60;;
81651;SDS011;71061;55.714;37.794;2023-10-19T11:58:30;6.93;;;2.67;;
81651;SDS011;71061;55.714;37.794;2023-10-19T12:03:34;15.88;;;4.70;;
81651;SDS011;71061;55.714;37.794;2023-10-19T12:06:03;9.82;;;4.78;;
81651;SDS011;71061;55.714;37.794;2023-10-19T12:08:33;10.27;;;4.10;;
81651;SDS011;71061;55.714;37.794;2023-10-19T12:10:59;9.50;;;3.80;;
81651;SDS011;71061;55.714;37.794;2023-10-19T12:13:28;8.30;;;3.60;;
81651;SDS011;71061;55.714;37.794;2023-10-19T12:15:53;8.23;;;3.55;;
81651;SDS011;71061;55.714;37.794;2023-10-19T12:18:20;14.93;;;4.57;;
81651;SDS011;71061;55.714;37.794;2023-10-19T12:20:47;9.77;;;4.57;;
81651;SDS011;71061;55.714;37.794;2023-10-19T12:23:13;10.20;;;3.53;;
81651;SDS011;71061;55.714;37.794;2023-10-19T12:25:40;10.43;;;4.45;;
81651;SDS011;71061;55.714;37.794;2023-10-19T12:28:08;11.60;;;4.32;;
81651;SDS011;71061;55.714;37.794;2023-10-19T12:30:38;7.65;;;3.17;;
81651;SDS011;71061;55.714;37.794;2023-10-19T12:33:06;8.23;;;3.33;;
81651;SDS011;71061;55.714;37.794;2023-10-19T12:35:39;7.75;;;3.92;;
81651;SDS011;71061;55.714;37.794;2023-10-19T12:38:17;6.65;;;2.92;;
81651;SDS011;71061;55.714;37.794;2023-10-19T12:40:46;6.72;;;2.92;;
81651;SDS011;71061;55.714;37.794;2023-10-19T12:43:13;7.03;;;3.22;;
81651;SDS011;71061;55.714;37.794;2023-10-19T12:45:40;7.53;;;3.92;;
81651;SDS011;71061;55.714;37.794;2023-10-19T12:48:06;8.35;;;3.90;;
81651;SDS011;71061;55.714;37.794;2023-10-19T12:50:34;36.47;;;6.63;;
81651;SDS011;71061;55.714;37.794;2023-10-19T12:53:00;8.68;;;4.03;;
81651;SDS011;71061;55.714;37.794;2023-10-19T12:55:25;9.65;;;5.53;;
81651;SDS011;71061;55.714;37.794;2023-10-19T12:57:53;8.85;;;3.80;;
81651;SDS011;71061;55.714;37.794;2023-10-19T13:00:19;8.80;;;3.58;;
81651;SDS011;71061;55.714;37.794;2023-10-19T13:02:55;7.70;;;3.65;;
81651;SDS011;71061;55.714;37.794;2023-10-19T13:05:26;9.30;;;3.70;;
81651;SDS011;71061;55.714;37.794;2023-10-19T13:07:53;6.88;;;4.53;;
81651;SDS011;71061;55.714;37.794;2023-10-19T13:10:19;7.18;;;2.63;;
81651;SDS011;71061;55.714;37.794;2023-10-19T13:12:44;6.72;;;2.70;;
81651;SDS011;71061;55.714;37.794;2023-10-19T13:15:10;7.60;;;3.08;;
81651;SDS011;71061;55.714;37.794;2023-10-19T13:17:39;6.07;;;3.00;;
81651;SDS011;71061;55.714;37.794;2023-10-19T13:20:05;6.82;;;2.72;;
81651;SDS011;71061;55.714;37.794;2023-10-19T13:22:41;7.13;;;3.20;;
81651;SDS011;71061;55.714;37.794;2023-10-19T13:25:07;8.75;;;3.08;;
81651;SDS011;71061;55.714;37.794;2023-10-19T13:27:38;7.93;;;3.58;;
81651;SDS011;71061;55.714;37.794;2023-10-19T13:30:07;7.47;;;3.35;;
81651;SDS011;71061;55.714;37.794;2023-10-19T13:32:36;7.22;;;4.40;;
81651;SDS011;71061;55.714;37.794;2023-10-19T13:35:02;7.50;;;3.00;;
81651;SDS011;71061;55.714;37.794;2023-10-19T13:37:28;8.23;;;3.58;;
81651;SDS011;71061;55.714;37.794;2023-10-19T13:39:54;8.40;;;3.67;;
81651;SDS011;71061;55.714;37.794;2023-10-19T13:42:20;7.68;;;2.78;;
81651;SDS011;71061;55.714;37.794;2023-10-19T13:44:47;8.65;;;2.97;;
81651;SDS011;71061;55.714;37.794;2023-10-19T13:47:13;8.23;;;2.50;;
81651;SDS011;71061;55.714;37.794;2023-10-19T13:49:38;7.03;;;2.58;;
81651;SDS011;71061;55.714;37.794;2023-10-19T13:52:04;6.30;;;2.47;;
81651;SDS011;71061;55.714;37.794;2023-10-19T13:54:30;10.52;;;3.40;;
81651;SDS011;71061;55.714;37.794;2023-10-19T13:56:56;8.95;;;3.55;;
81651;SDS011;71061;55.714;37.794;2023-10-19T13:59:21;9.80;;;4.07;;
81651;SDS011;71061;55.714;37.794;2023-10-19T14:01:49;8.20;;;2.63;;
81651;SDS011;71061;55.714;37.794;2023-10-19T14:04:15;13.77;;;4.47;;
81651;SDS011;71061;55.714;37.794;2023-10-19T14:06:41;10.15;;;3.55;;
81651;SDS011;71061;55.714;37.794;2023-10-19T14:09:08;9.95;;;2.60;;
81651;SDS011;71061;55.714;37.794;2023-10-19T14:11:38;6.95;;;2.90;;
81651;SDS011;71061;55.714;37.794;2023-10-19T14:14:03;11.13;;;3.42;;
81651;SDS011;71061;55.714;37.794;2023-10-19T14:16:29;7.63;;;3.65;;
81651;SDS011;71061;55.714;37.794;2023-10-19T14:18:56;9.77;;;3.10;;
81651;SDS011;71061;55.714;37.794;2023-10-19T14:21:22;8.85;;;2.50;;
81651;SDS011;71061;55.714;37.794;2023-10-19T14:23:52;7.28;;;2.55;;
81651;SDS011;71061;55.714;37.794;2023-10-19T14:26:19;7.60;;;2.72;;
81651;SDS011;71061;55.714;37.794;2023-10-19T14:28:45;10.70;;;3.40;;
81651;SDS011;71061;55.714;37.794;2023-10-19T14:31:11;6.28;;;2.10;;
81651;SDS011;71061;55.714;37.794;2023-10-19T14:33:37;10.65;;;2.67;;
81651;SDS011;71061;55.714;37.794;2023-10-19T14:36:03;8.20;;;2.80;;
81651;SDS011;71061;55.714;37.794;2023-10-19T14:38:29;8.80;;;3.03;;
81651;SDS011;71061;55.714;37.794;2023-10-19T14:40:55;9.05;;;2.90;;
81651;SDS011;71061;55.714;37.794;2023-10-19T14:43:21;6.82;;;2.08;;
81651;SDS011;71061;55.714;37.794;2023-10-19T14:45:47;7.82;;;3.05;;
81651;SDS011;71061;55.714;37.794;2023-10-19T14:48:12;8.15;;;2.95;;
81651;SDS011;71061;55.714;37.794;2023-10-19T14:50:40;7.55;;;3.08;;
81651;SDS011;71061;55.714;37.794;2023-10-19T14:53:08;6.03;;;2.65;;
81651;SDS011;71061;55.714;37.794;2023-10-19T14:55:34;6.55;;;2.15;;
81651;SDS011;71061;55.714;37.794;2023-10-19T14:58:00;7.80;;;2.33;;
81651;SDS011;71061;55.714;37.794;2023-10-19T15:00:26;8.30;;;2.83;;
81651;SDS011;71061;55.714;37.794;2023-10-19T15:03:01;7.70;;;2.58;;
81651;SDS011;71061;55.714;37.794;2023-10-19T15:05:33;7.50;;;3.38;;
81651;SDS011;71061;55.714;37.794;2023-10-19T15:08:03;8.70;;;2.53;;
81651;SDS011;71061;55.714;37.794;2023-10-19T15:10:30;9.10;;;4.68;;
81651;SDS011;71061;55.714;37.794;2023-10-19T15:12:57;10.02;;;4.82;;